WLS402 EGAA-EGOV
Flight info
| Callsign | WLS402 |
|---|---|
| Flight time | 0h 28m |
| Altitude | 17000 |
| Route | IOM |
| Aircraft | A320/M-SDE3FGHIRWY/LB1 |
Departure
| Time | 2026-05-05 16:00 |
|---|---|
| Airport | Belfast International Airport (EGAA) |
Arrival
| Time | 2026-05-05 16:28 |
|---|---|
| Airport | Anglesey Airport (EGOV) |
| Time | Latitude | Longitude | Altitude | Speed | Heading |
|---|---|---|---|---|---|
| 2026-05-05 15:46 | 54.66084 | -6.21647 | 237 ft | 0 kts | 335° |
| 2026-05-05 15:53 | 54.66076 | -6.21640 | 237 ft | 4 kts | 335° |
| 2026-05-05 15:53 | 54.66051 | -6.21620 | 237 ft | 4 kts | 335° |
| 2026-05-05 15:54 | 54.66027 | -6.21601 | 238 ft | 4 kts | 334° |
| 2026-05-05 15:54 | 54.66003 | -6.21580 | 238 ft | 4 kts | 333° |
| 2026-05-05 15:54 | 54.65979 | -6.21559 | 239 ft | 4 kts | 330° |
| 2026-05-05 15:54 | 54.65959 | -6.21538 | 239 ft | 1 kts | 324° |
| 2026-05-05 15:55 | 54.65958 | -6.21537 | 239 ft | 0 kts | 324° |
| 2026-05-05 15:56 | 54.65959 | -6.21539 | 239 ft | 2 kts | 318° |
| 2026-05-05 15:56 | 54.65942 | -6.21578 | 239 ft | 8 kts | 213° |
| 2026-05-05 15:56 | 54.65903 | -6.21689 | 237 ft | 15 kts | 245° |
| 2026-05-05 15:57 | 54.65864 | -6.21843 | 239 ft | 16 kts | 247° |
| 2026-05-05 15:57 | 54.65808 | -6.22037 | 232 ft | 20 kts | 242° |
| 2026-05-05 15:57 | 54.65769 | -6.22287 | 227 ft | 23 kts | 261° |
| 2026-05-05 15:57 | 54.65755 | -6.22508 | 221 ft | 16 kts | 263° |
| 2026-05-05 15:58 | 54.65743 | -6.22733 | 222 ft | 21 kts | 265° |
| 2026-05-05 15:58 | 54.65684 | -6.22965 | 215 ft | 22 kts | 234° |
| 2026-05-05 15:58 | 54.65605 | -6.23155 | 217 ft | 12 kts | 233° |
| 2026-05-05 15:58 | 54.65548 | -6.23282 | 221 ft | 15 kts | 232° |
| 2026-05-05 15:59 | 54.65456 | -6.23372 | 219 ft | 16 kts | 202° |
| 2026-05-05 15:59 | 54.65341 | -6.23379 | 220 ft | 18 kts | 156° |
| 2026-05-05 15:59 | 54.65320 | -6.23178 | 222 ft | 27 kts | 67° |
| 2026-05-05 15:59 | 54.65498 | -6.22514 | 227 ft | 94 kts | 65° |
| 2026-05-05 16:00 | 54.65853 | -6.21204 | 242 ft | 144 kts | 65° |
| 2026-05-05 16:00 | 54.66304 | -6.19566 | 699 ft | 149 kts | 64° |
| 2026-05-05 16:00 | 54.66766 | -6.17908 | 1234 ft | 157 kts | 63° |
| 2026-05-05 16:00 | 54.67248 | -6.16179 | 1785 ft | 162 kts | 63° |
| 2026-05-05 16:01 | 54.67509 | -6.14268 | 2202 ft | 175 kts | 102° |
| 2026-05-05 16:01 | 54.66872 | -6.12381 | 2509 ft | 194 kts | 133° |
| 2026-05-05 16:01 | 54.65943 | -6.10501 | 2788 ft | 218 kts | 130° |
| 2026-05-05 16:01 | 54.64933 | -6.08360 | 3156 ft | 243 kts | 129° |
| 2026-05-05 16:02 | 54.63833 | -6.05951 | 3664 ft | 264 kts | 128° |
| 2026-05-05 16:02 | 54.62700 | -6.03407 | 4522 ft | 270 kts | 128° |
| 2026-05-05 16:02 | 54.61558 | -6.00797 | 5442 ft | 274 kts | 127° |
| 2026-05-05 16:02 | 54.60410 | -5.98147 | 6299 ft | 278 kts | 127° |
| 2026-05-05 16:03 | 54.59251 | -5.95462 | 7183 ft | 281 kts | 127° |
| 2026-05-05 16:03 | 54.58081 | -5.92743 | 8046 ft | 284 kts | 127° |
| 2026-05-05 16:03 | 54.56899 | -5.89994 | 8882 ft | 287 kts | 127° |
| 2026-05-05 16:03 | 54.55700 | -5.87215 | 9701 ft | 291 kts | 127° |
| 2026-05-05 16:04 | 54.54473 | -5.84381 | 10294 ft | 304 kts | 127° |
| 2026-05-05 16:04 | 54.53159 | -5.81349 | 10546 ft | 327 kts | 127° |
| 2026-05-05 16:04 | 54.51759 | -5.78123 | 10914 ft | 343 kts | 127° |
| 2026-05-05 16:04 | 54.50321 | -5.74809 | 11580 ft | 348 kts | 127° |
| 2026-05-05 16:05 | 54.48863 | -5.71457 | 12266 ft | 352 kts | 127° |
| 2026-05-05 16:05 | 54.47385 | -5.68069 | 12936 ft | 355 kts | 127° |
| 2026-05-05 16:05 | 54.45895 | -5.64654 | 13600 ft | 359 kts | 127° |
| 2026-05-05 16:05 | 54.44391 | -5.61207 | 14269 ft | 362 kts | 127° |
| 2026-05-05 16:06 | 54.42871 | -5.57730 | 14897 ft | 366 kts | 127° |
| 2026-05-05 16:06 | 54.41336 | -5.54227 | 15509 ft | 369 kts | 127° |
| 2026-05-05 16:06 | 54.39786 | -5.50690 | 16106 ft | 372 kts | 127° |
| 2026-05-05 16:06 | 54.38225 | -5.47128 | 16678 ft | 375 kts | 127° |
| 2026-05-05 16:07 | 54.36669 | -5.43584 | 16940 ft | 377 kts | 127° |
| 2026-05-05 16:07 | 54.35056 | -5.39914 | 17009 ft | 389 kts | 127° |
| 2026-05-05 16:07 | 54.33401 | -5.36154 | 17010 ft | 398 kts | 127° |
| 2026-05-05 16:07 | 54.31727 | -5.32359 | 17009 ft | 400 kts | 127° |
| 2026-05-05 16:08 | 54.30044 | -5.28557 | 17009 ft | 401 kts | 128° |
| 2026-05-05 16:08 | 54.28359 | -5.24759 | 17009 ft | 401 kts | 128° |
| 2026-05-05 16:08 | 54.26672 | -5.20960 | 17009 ft | 401 kts | 128° |
| 2026-05-05 16:08 | 54.24988 | -5.17166 | 17009 ft | 401 kts | 127° |
| 2026-05-05 16:09 | 54.23301 | -5.13362 | 17009 ft | 401 kts | 127° |
| 2026-05-05 16:09 | 54.21614 | -5.09567 | 17009 ft | 401 kts | 128° |
| 2026-05-05 16:09 | 54.19949 | -5.05829 | 17009 ft | 401 kts | 128° |
| 2026-05-05 16:09 | 54.18260 | -5.02048 | 17011 ft | 401 kts | 128° |
| 2026-05-05 16:10 | 54.16564 | -4.98266 | 17012 ft | 401 kts | 128° |
| 2026-05-05 16:10 | 54.14865 | -4.94488 | 17014 ft | 401 kts | 128° |
| 2026-05-05 16:10 | 54.13165 | -4.90717 | 17016 ft | 401 kts | 128° |
| 2026-05-05 16:10 | 54.11466 | -4.86947 | 17018 ft | 401 kts | 128° |
| 2026-05-05 16:11 | 54.09754 | -4.83186 | 17020 ft | 401 kts | 130° |
| 2026-05-05 16:11 | 54.02884 | -4.75491 | 17019 ft | 398 kts | 165° |
| 2026-05-05 16:12 | 54.00171 | -4.74553 | 17020 ft | 398 kts | 172° |
| 2026-05-05 16:12 | 53.94700 | -4.73101 | 17021 ft | 398 kts | 172° |
| 2026-05-05 16:13 | 53.86494 | -4.70856 | 17024 ft | 398 kts | 171° |
| 2026-05-05 16:13 | 53.83759 | -4.70108 | 17024 ft | 398 kts | 172° |
| 2026-05-05 16:13 | 53.81045 | -4.69373 | 16859 ft | 389 kts | 172° |
| 2026-05-05 16:14 | 53.75841 | -4.67975 | 16057 ft | 373 kts | 172° |
| 2026-05-05 16:14 | 53.70771 | -4.66621 | 15004 ft | 366 kts | 172° |
| 2026-05-05 16:15 | 53.65785 | -4.65290 | 13955 ft | 359 kts | 172° |
| 2026-05-05 16:15 | 53.60896 | -4.63980 | 12924 ft | 353 kts | 172° |
| 2026-05-05 16:16 | 53.56099 | -4.62686 | 11910 ft | 347 kts | 172° |
| 2026-05-05 16:16 | 53.51371 | -4.61420 | 10900 ft | 341 kts | 172° |
| 2026-05-05 16:17 | 53.46768 | -4.60178 | 10325 ft | 325 kts | 171° |
| 2026-05-05 16:17 | 53.44571 | -4.59569 | 10111 ft | 316 kts | 171° |
| 2026-05-05 16:18 | 53.40321 | -4.58388 | 9602 ft | 303 kts | 171° |
| 2026-05-05 16:18 | 53.38261 | -4.57815 | 9426 ft | 295 kts | 171° |
| 2026-05-05 16:18 | 53.34292 | -4.56706 | 9032 ft | 286 kts | 171° |
| 2026-05-05 16:19 | 53.32343 | -4.56162 | 8719 ft | 285 kts | 171° |
| 2026-05-05 16:19 | 53.30388 | -4.55617 | 8287 ft | 284 kts | 171° |
| 2026-05-05 16:19 | 53.26466 | -4.54526 | 7344 ft | 291 kts | 171° |
| 2026-05-05 16:20 | 53.22574 | -4.53445 | 6442 ft | 275 kts | 171° |
| 2026-05-05 16:20 | 53.18809 | -4.52396 | 5941 ft | 274 kts | 171° |
| 2026-05-05 16:21 | 53.15637 | -4.49202 | 5441 ft | 274 kts | 132° |
| 2026-05-05 16:22 | 53.12000 | -4.42058 | 4612 ft | 267 kts | 130° |
| 2026-05-05 16:22 | 53.10004 | -4.38098 | 3774 ft | 263 kts | 130° |
| 2026-05-05 16:23 | 53.09302 | -4.32701 | 3289 ft | 244 kts | 62° |
| 2026-05-05 16:23 | 53.10422 | -4.30801 | 3164 ft | 231 kts | 22° |
| 2026-05-05 16:23 | 53.13174 | -4.31840 | 2953 ft | 204 kts | 319° |
| 2026-05-05 16:24 | 53.14239 | -4.33292 | 2954 ft | 190 kts | 320° |
| 2026-05-05 16:24 | 53.15194 | -4.34663 | 2913 ft | 175 kts | 314° |
| 2026-05-05 16:24 | 53.16647 | -4.37555 | 2589 ft | 152 kts | 306° |
| 2026-05-05 16:25 | 53.17274 | -4.38886 | 2454 ft | 143 kts | 307° |
| 2026-05-05 16:25 | 53.18536 | -4.41374 | 1962 ft | 139 kts | 308° |
| 2026-05-05 16:25 | 53.19167 | -4.42590 | 1760 ft | 138 kts | 309° |
| 2026-05-05 16:26 | 53.20430 | -4.44995 | 1229 ft | 137 kts | 309° |
| 2026-05-05 16:26 | 53.21665 | -4.47399 | 794 ft | 137 kts | 309° |
| 2026-05-05 16:27 | 53.22284 | -4.48602 | 581 ft | 136 kts | 309° |
| 2026-05-05 16:27 | 53.22905 | -4.49804 | 399 ft | 137 kts | 309° |
| 2026-05-05 16:27 | 53.23526 | -4.51005 | 216 ft | 137 kts | 309° |
| 2026-05-05 16:27 | 53.24139 | -4.52203 | 47 ft | 135 kts | 309° |
| 2026-05-05 16:28 | 53.24642 | -4.53193 | 33 ft | 75 kts | 310° |
| 2026-05-05 16:28 | 53.24922 | -4.53752 | 31 ft | 59 kts | 309° |
| 2026-05-05 16:28 | 53.25139 | -4.54182 | 33 ft | 47 kts | 310° |
| 2026-05-05 16:28 | 53.25280 | -4.54445 | 33 ft | 24 kts | 315° |
| 2026-05-05 16:29 | 53.25403 | -4.54584 | 33 ft | 20 kts | 21° |
| 2026-05-05 16:29 | 53.25467 | -4.54460 | 31 ft | 14 kts | 69° |
| 2026-05-05 16:29 | 53.25451 | -4.54309 | 33 ft | 13 kts | 136° |
| 2026-05-05 16:29 | 53.25385 | -4.54197 | 35 ft | 14 kts | 129° |
| 2026-05-05 16:30 | 53.25322 | -4.54066 | 34 ft | 17 kts | 130° |
| 2026-05-05 16:30 | 53.25308 | -4.53873 | 32 ft | 18 kts | 94° |
| 2026-05-05 16:30 | 53.25301 | -4.53722 | 34 ft | 6 kts | 81° |
| 2026-05-05 16:30 | 53.25298 | -4.53673 | 34 ft | 7 kts | 75° |
| 2026-05-05 16:31 | 53.25361 | -4.53603 | 34 ft | 13 kts | 13° |
| 2026-05-05 16:31 | 53.25458 | -4.53590 | 34 ft | 15 kts | 7° |
| 2026-05-05 16:31 | 53.25512 | -4.53573 | 34 ft | 7 kts | 12° |
| 2026-05-05 16:31 | 53.25527 | -4.53605 | 34 ft | 2 kts | 279° |
| 2026-05-05 16:32 | 53.25526 | -4.53624 | 34 ft | 1 kts | 269° |
| 2026-05-05 16:32 | 53.25526 | -4.53625 | 34 ft | 0 kts | 269° |